Andover, Virginia
Current Conditions -  °F | °C
As of 4:15 PM on Saturday 25 Oct 2014 (Local Time) from KLNP Reporting Station
Overcast Overcast  
Wind Chill: 63°   Ceiling: 3300
Heat Index: 63°   Visibility: 10mi
Dew Point: 43°   Wind: 7mph
Humidity: 48%   Direction: 260°W
Pressure: 30.04"   Gusts: NA
Location:  36.92°N, 82.8°W
Report Text: KLNP 252015Z AUTO 26006KT 10SM BKN033 BKN043 OVC050 17/06 A3004 RMK AO2
Loading
Personal Weather Stations






























Interactive Weather Map
Tropical Storm Tracking
New forecast layout! Learn more

10-Day Weather Forecast

Advertisements
Track Severe Weather on mobile